sensor_id;sensor_type;location;lat;lon;timestamp;pressure;altitude;pressure_sealevel;temperature;humidity
79589;BME280;69067;51.930;4.492;2023-09-30T00:01:11;102431.22;;;25.52;41.17
79589;BME280;69067;51.930;4.492;2023-09-30T00:03:37;102436.13;;;25.56;40.90
79589;BME280;69067;51.930;4.492;2023-09-30T00:06:03;102437.81;;;25.57;40.69
79589;BME280;69067;51.930;4.492;2023-09-30T00:08:29;102431.50;;;25.57;41.58
79589;BME280;69067;51.930;4.492;2023-09-30T00:10:55;102433.25;;;25.58;41.44
79589;BME280;69067;51.930;4.492;2023-09-30T00:13:21;102432.53;;;25.56;41.43
79589;BME280;69067;51.930;4.492;2023-09-30T00:15:47;102436.97;;;25.57;40.99
79589;BME280;69067;51.930;4.492;2023-09-30T00:18:13;102432.72;;;25.54;41.18
79589;BME280;69067;51.930;4.492;2023-09-30T00:20:39;102434.59;;;25.54;40.94
79589;BME280;69067;51.930;4.492;2023-09-30T00:23:05;102423.84;;;25.52;41.43
79589;BME280;69067;51.930;4.492;2023-09-30T00:25:35;102437.31;;;25.54;41.25
79589;BME280;69067;51.930;4.492;2023-09-30T00:28:00;102441.28;;;25.51;41.53
79589;BME280;69067;51.930;4.492;2023-09-30T00:30:26;102435.31;;;25.47;41.14
79589;BME280;69067;51.930;4.492;2023-09-30T00:32:52;102445.88;;;25.50;41.63
79589;BME280;69067;51.930;4.492;2023-09-30T00:35:17;102431.41;;;25.50;41.34
79589;BME280;69067;51.930;4.492;2023-09-30T00:37:43;102439.41;;;25.52;41.55
79589;BME280;69067;51.930;4.492;2023-09-30T00:40:09;102444.88;;;25.52;41.21
79589;BME280;69067;51.930;4.492;2023-09-30T00:42:39;102452.84;;;25.53;41.19
79589;BME280;69067;51.930;4.492;2023-09-30T00:45:07;102458.50;;;25.52;41.35
79589;BME280;69067;51.930;4.492;2023-09-30T00:47:37;102461.22;;;25.52;41.63
79589;BME280;69067;51.930;4.492;2023-09-30T00:50:05;102456.97;;;25.49;41.35
79589;BME280;69067;51.930;4.492;2023-09-30T00:52:35;102455.78;;;25.52;41.33
79589;BME280;69067;51.930;4.492;2023-09-30T00:55:02;102456.59;;;25.52;41.95
79589;BME280;69067;51.930;4.492;2023-09-30T00:57:30;102464.13;;;25.50;41.78
79589;BME280;69067;51.930;4.492;2023-09-30T00:59:57;102474.19;;;25.49;41.94
79589;BME280;69067;51.930;4.492;2023-09-30T01:02:23;102479.81;;;25.48;41.93
79589;BME280;69067;51.930;4.492;2023-09-30T01:04:50;102485.94;;;25.50;41.72
79589;BME280;69067;51.930;4.492;2023-09-30T01:07:15;102480.50;;;25.50;41.98
79589;BME280;69067;51.930;4.492;2023-09-30T01:09:42;102488.00;;;25.48;42.10
79589;BME280;69067;51.930;4.492;2023-09-30T01:12:08;102472.50;;;25.48;42.07
79589;BME280;69067;51.930;4.492;2023-09-30T01:14:35;102476.91;;;25.49;42.12
79589;BME280;69067;51.930;4.492;2023-09-30T01:17:02;102477.78;;;25.50;41.87
79589;BME280;69067;51.930;4.492;2023-09-30T01:19:28;102473.91;;;25.44;42.22
79589;BME280;69067;51.930;4.492;2023-09-30T01:21:56;102472.50;;;25.48;41.73
79589;BME280;69067;51.930;4.492;2023-09-30T01:24:29;102478.63;;;25.50;41.73
79589;BME280;69067;51.930;4.492;2023-09-30T01:26:56;102469.59;;;25.50;41.76
79589;BME280;69067;51.930;4.492;2023-09-30T01:29:22;102475.91;;;25.50;42.51
79589;BME280;69067;51.930;4.492;2023-09-30T01:31:48;102473.50;;;25.47;42.09
79589;BME280;69067;51.930;4.492;2023-09-30T01:34:16;102472.31;;;25.50;42.28
79589;BME280;69067;51.930;4.492;2023-09-30T01:36:42;102481.81;;;25.54;42.23
79589;BME280;69067;51.930;4.492;2023-09-30T01:39:12;102472.78;;;25.54;41.59
79589;BME280;69067;51.930;4.492;2023-09-30T01:41:39;102468.34;;;25.52;42.17
79589;BME280;69067;51.930;4.492;2023-09-30T01:44:06;102474.00;;;25.51;42.04
79589;BME280;69067;51.930;4.492;2023-09-30T01:46:32;102480.31;;;25.52;42.29
79589;BME280;69067;51.930;4.492;2023-09-30T01:48:58;102480.97;;;25.54;42.19
79589;BME280;69067;51.930;4.492;2023-09-30T01:51:23;102481.53;;;25.49;42.45
79589;BME280;69067;51.930;4.492;2023-09-30T01:53:50;102485.78;;;25.52;42.03
79589;BME280;69067;51.930;4.492;2023-09-30T01:56:15;102495.63;;;25.52;42.15
79589;BME280;69067;51.930;4.492;2023-09-30T01:58:41;102481.81;;;25.54;41.95
79589;BME280;69067;51.930;4.492;2023-09-30T02:01:07;102487.28;;;25.54;42.11
79589;BME280;69067;51.930;4.492;2023-09-30T02:03:34;102476.91;;;25.49;42.23
79589;BME280;69067;51.930;4.492;2023-09-30T02:06:00;102477.78;;;25.50;42.54
79589;BME280;69067;51.930;4.492;2023-09-30T02:08:25;102477.22;;;25.55;42.43
79589;BME280;69067;51.930;4.492;2023-09-30T02:10:51;102475.69;;;25.52;42.13
79589;BME280;69067;51.930;4.492;2023-09-30T02:13:18;102488.13;;;25.55;42.28
79589;BME280;69067;51.930;4.492;2023-09-30T02:15:44;102474.66;;;25.53;42.32
79589;BME280;69067;51.930;4.492;2023-09-30T02:18:09;102457.81;;;25.49;42.01
79589;BME280;69067;51.930;4.492;2023-09-30T02:20:36;102453.50;;;25.55;42.29
79589;BME280;69067;51.930;4.492;2023-09-30T02:23:06;102453.69;;;25.54;42.70
79589;BME280;69067;51.930;4.492;2023-09-30T02:25:39;102461.88;;;25.54;42.30
79589;BME280;69067;51.930;4.492;2023-09-30T02:28:06;102453.88;;;25.52;41.86
79589;BME280;69067;51.930;4.492;2023-09-30T02:30:32;102463.25;;;25.58;42.07
79589;BME280;69067;51.930;4.492;2023-09-30T02:32:58;102448.63;;;25.50;42.22
79589;BME280;69067;51.930;4.492;2023-09-30T02:35:24;102462.03;;;25.52;42.49
79589;BME280;69067;51.930;4.492;2023-09-30T02:37:51;102469.41;;;25.52;42.65
79589;BME280;69067;51.930;4.492;2023-09-30T02:40:18;102464.78;;;25.52;42.03
79589;BME280;69067;51.930;4.492;2023-09-30T02:42:45;102463.09;;;25.51;42.20
79589;BME280;69067;51.930;4.492;2023-09-30T02:45:12;102467.31;;;25.54;42.46
79589;BME280;69067;51.930;4.492;2023-09-30T02:47:39;102473.34;;;25.49;42.32
79589;BME280;69067;51.930;4.492;2023-09-30T02:50:08;102469.09;;;25.46;42.67
79589;BME280;69067;51.930;4.492;2023-09-30T02:52:36;102470.44;;;25.50;42.07
79589;BME280;69067;51.930;4.492;2023-09-30T02:55:04;102462.59;;;25.47;42.55
79589;BME280;69067;51.930;4.492;2023-09-30T02:57:30;102465.16;;;25.49;42.35
79589;BME280;69067;51.930;4.492;2023-09-30T02:59:56;102473.34;;;25.49;42.37
79589;BME280;69067;51.930;4.492;2023-09-30T03:02:24;102456.28;;;25.47;42.64
79589;BME280;69067;51.930;4.492;2023-09-30T03:04:50;102455.09;;;25.49;42.40
79589;BME280;69067;51.930;4.492;2023-09-30T03:07:18;102456.13;;;25.48;42.32
79589;BME280;69067;51.930;4.492;2023-09-30T03:09:46;102457.81;;;25.49;42.80
79589;BME280;69067;51.930;4.492;2023-09-30T03:12:12;102450.66;;;25.48;42.98
79589;BME280;69067;51.930;4.492;2023-09-30T03:14:39;102455.94;;;25.50;42.78
79589;BME280;69067;51.930;4.492;2023-09-30T03:17:05;102457.81;;;25.49;42.54
79589;BME280;69067;51.930;4.492;2023-09-30T03:19:36;102456.97;;;25.49;42.60
79589;BME280;69067;51.930;4.492;2023-09-30T03:22:03;102463.28;;;25.49;42.59
79589;BME280;69067;51.930;4.492;2023-09-30T03:24:30;102457.81;;;25.49;42.87
79589;BME280;69067;51.930;4.492;2023-09-30T03:26:56;102456.13;;;25.48;42.42
79589;BME280;69067;51.930;4.492;2023-09-30T03:29:23;102459.53;;;25.50;42.76
79589;BME280;69067;51.930;4.492;2023-09-30T03:31:49;102457.31;;;25.46;42.72
79589;BME280;69067;51.930;4.492;2023-09-30T03:34:14;102455.28;;;25.48;43.01
79589;BME280;69067;51.930;4.492;2023-09-30T03:36:42;102448.97;;;25.47;43.14
79589;BME280;69067;51.930;4.492;2023-09-30T03:39:08;102454.81;;;25.44;42.67
79589;BME280;69067;51.930;4.492;2023-09-30T03:41:34;102461.75;;;25.47;42.56
79589;BME280;69067;51.930;4.492;2023-09-30T03:44:03;102455.63;;;25.45;42.76
79589;BME280;69067;51.930;4.492;2023-09-30T03:46:29;102450.84;;;25.47;42.51
79589;BME280;69067;51.930;4.492;2023-09-30T03:48:55;102451.03;;;25.45;42.99
79589;BME280;69067;51.930;4.492;2023-09-30T03:51:21;102462.13;;;25.44;42.82
79589;BME280;69067;51.930;4.492;2023-09-30T03:53:48;102459.03;;;25.47;43.06
79589;BME280;69067;51.930;4.492;2023-09-30T03:56:14;102453.09;;;25.43;42.95
79589;BME280;69067;51.930;4.492;2023-09-30T03:58:42;102458.19;;;25.46;42.94
79589;BME280;69067;51.930;4.492;2023-09-30T04:01:09;102459.88;;;25.47;42.88
79589;BME280;69067;51.930;4.492;2023-09-30T04:03:39;102464.66;;;25.45;42.20
79589;BME280;69067;51.930;4.492;2023-09-30T04:06:05;102459.41;;;25.44;42.53
79589;BME280;69067;51.930;4.492;2023-09-30T04:08:33;102458.19;;;25.46;42.71
79589;BME280;69067;51.930;4.492;2023-09-30T04:10:59;102452.53;;;25.48;42.83
79589;BME280;69067;51.930;4.492;2023-09-30T04:13:26;102457.16;;;25.47;42.79
79589;BME280;69067;51.930;4.492;2023-09-30T04:15:52;102462.44;;;25.49;42.64
79589;BME280;69067;51.930;4.492;2023-09-30T04:18:18;102454.81;;;25.44;42.85
79589;BME280;69067;51.930;4.492;2023-09-30T04:20:48;102449.53;;;25.43;42.59
79589;BME280;69067;51.930;4.492;2023-09-30T04:23:14;102458.00;;;25.48;42.98
79589;BME280;69067;51.930;4.492;2023-09-30T04:25:40;102460.56;;;25.49;42.43
79589;BME280;69067;51.930;4.492;2023-09-30T04:28:07;102467.22;;;25.47;43.10
79589;BME280;69067;51.930;4.492;2023-09-30T04:30:35;102472.78;;;25.54;42.93
79589;BME280;69067;51.930;4.492;2023-09-30T04:33:01;102482.38;;;25.49;43.34
79589;BME280;69067;51.930;4.492;2023-09-30T04:35:29;102473.34;;;25.49;42.93
79589;BME280;69067;51.930;4.492;2023-09-30T04:37:56;102469.59;;;25.50;42.86
79589;BME280;69067;51.930;4.492;2023-09-30T04:40:22;102459.88;;;25.47;42.68
79589;BME280;69067;51.930;4.492;2023-09-30T04:42:48;102470.06;;;25.54;42.52
79589;BME280;69067;51.930;4.492;2023-09-30T04:45:15;102473.63;;;25.54;43.21
79589;BME280;69067;51.930;4.492;2023-09-30T04:47:49;102478.41;;;25.52;42.69
79589;BME280;69067;51.930;4.492;2023-09-30T04:50:15;102483.53;;;25.55;42.84
79589;BME280;69067;51.930;4.492;2023-09-30T04:52:42;102474.88;;;25.52;42.40
79589;BME280;69067;51.930;4.492;2023-09-30T04:55:09;102474.47;;;25.55;42.77
79589;BME280;69067;51.930;4.492;2023-09-30T04:57:37;102470.91;;;25.54;42.58
79589;BME280;69067;51.930;4.492;2023-09-30T05:00:03;102476.53;;;25.52;42.77
79589;BME280;69067;51.930;4.492;2023-09-30T05:02:36;102468.19;;;25.54;42.68
79589;BME280;69067;51.930;4.492;2023-09-30T05:05:02;102478.06;;;25.55;42.69
79589;BME280;69067;51.930;4.492;2023-09-30T05:07:31;102485.78;;;25.52;43.02
79589;BME280;69067;51.930;4.492;2023-09-30T05:09:57;102477.59;;;25.52;43.00
79589;BME280;69067;51.930;4.492;2023-09-30T05:12:23;102481.34;;;25.50;42.85
79589;BME280;69067;51.930;4.492;2023-09-30T05:14:49;102477.59;;;25.52;42.59
79589;BME280;69067;51.930;4.492;2023-09-30T05:17:14;102482.38;;;25.49;43.13
79589;BME280;69067;51.930;4.492;2023-09-30T05:19:41;102483.41;;;25.48;42.67
79589;BME280;69067;51.930;4.492;2023-09-30T05:22:06;102481.88;;;25.46;43.25
79589;BME280;69067;51.930;4.492;2023-09-30T05:24:32;102489.19;;;25.45;43.06
79589;BME280;69067;51.930;4.492;2023-09-30T05:27:00;102473.22;;;25.42;43.56
79589;BME280;69067;51.930;4.492;2023-09-30T05:29:26;102479.34;;;25.44;43.39
79589;BME280;69067;51.930;4.492;2023-09-30T05:31:52;102484.81;;;25.44;43.20
79589;BME280;69067;51.930;4.492;2023-09-30T05:34:18;102490.91;;;25.46;43.06
79589;BME280;69067;51.930;4.492;2023-09-30T05:36:44;102488.84;;;25.48;42.46
79589;BME280;69067;51.930;4.492;2023-09-30T05:39:09;102487.81;;;25.49;43.23
79589;BME280;69067;51.930;4.492;2023-09-30T05:41:36;102497.72;;;25.50;43.04
79589;BME280;69067;51.930;4.492;2023-09-30T05:44:03;102493.47;;;25.48;42.84
79589;BME280;69067;51.930;4.492;2023-09-30T05:46:32;102493.63;;;25.46;42.94
79589;BME280;69067;51.930;4.492;2023-09-30T05:48:58;102499.75;;;25.48;42.89
79589;BME280;69067;51.930;4.492;2023-09-30T05:51:24;102485.63;;;25.45;42.86
79589;BME280;69067;51.930;4.492;2023-09-30T05:53:50;102492.13;;;25.44;43.28
79589;BME280;69067;51.930;4.492;2023-09-30T05:56:15;102486.84;;;25.42;43.13
79589;BME280;69067;51.930;4.492;2023-09-30T05:58:42;102498.22;;;25.46;43.34
79589;BME280;69067;51.930;4.492;2023-09-30T06:01:08;102511.03;;;25.45;42.79
79589;BME280;69067;51.930;4.492;2023-09-30T06:03:38;102497.59;;;25.44;42.96
79589;BME280;69067;51.930;4.492;2023-09-30T06:06:11;102490.72;;;25.48;42.78
79589;BME280;69067;51.930;4.492;2023-09-30T06:08:38;102490.91;;;25.46;43.27
79589;BME280;69067;51.930;4.492;2023-09-30T06:11:04;102487.31;;;25.46;42.90
79589;BME280;69067;51.930;4.492;2023-09-30T06:13:29;102495.50;;;25.46;43.08
79589;BME280;69067;51.930;4.492;2023-09-30T06:15:57;102501.81;;;25.46;42.76
79589;BME280;69067;51.930;4.492;2023-09-30T06:18:23;102498.75;;;25.49;43.26
79589;BME280;69067;51.930;4.492;2023-09-30T06:20:49;102498.06;;;25.47;42.78
79589;BME280;69067;51.930;4.492;2023-09-30T06:23:16;102501.81;;;25.46;42.67
79589;BME280;69067;51.930;4.492;2023-09-30T06:25:42;102512.72;;;25.46;42.62
79589;BME280;69067;51.930;4.492;2023-09-30T06:28:08;102526.19;;;25.48;43.32
79589;BME280;69067;51.930;4.492;2023-09-30T06:30:35;102527.03;;;25.48;42.90
79589;BME280;69067;51.930;4.492;2023-09-30T06:33:01;102542.09;;;25.44;43.31
79589;BME280;69067;51.930;4.492;2023-09-30T06:35:27;102547.03;;;25.41;43.20
79589;BME280;69067;51.930;4.492;2023-09-30T06:37:55;102539.69;;;25.41;43.05
79589;BME280;69067;51.930;4.492;2023-09-30T06:40:21;102541.75;;;25.39;42.69
79589;BME280;69067;51.930;4.492;2023-09-30T06:42:47;102543.28;;;25.42;42.85
79589;BME280;69067;51.930;4.492;2023-09-30T06:45:13;102540.72;;;25.40;43.06
79589;BME280;69067;51.930;4.492;2023-09-30T06:47:40;102544.66;;;25.38;43.25
79589;BME280;69067;51.930;4.492;2023-09-30T06:50:12;102541.09;;;25.37;43.28
79589;BME280;69067;51.930;4.492;2023-09-30T06:52:42;102551.81;;;25.39;43.21
79589;BME280;69067;51.930;4.492;2023-09-30T06:55:11;102543.81;;;25.37;43.18
79589;BME280;69067;51.930;4.492;2023-09-30T06:57:40;102537.31;;;25.38;43.15
79589;BME280;69067;51.930;4.492;2023-09-30T07:00:07;102543.50;;;25.32;43.13
79589;BME280;69067;51.930;4.492;2023-09-30T07:02:35;102558.09;;;25.39;43.72
79589;BME280;69067;51.930;4.492;2023-09-30T07:05:06;102558.97;;;25.40;42.78
79589;BME280;69067;51.930;4.492;2023-09-30T07:07:35;102562.53;;;25.40;43.22
79589;BME280;69067;51.930;4.492;2023-09-30T07:10:01;102563.72;;;25.38;43.18
79589;BME280;69067;51.930;4.492;2023-09-30T07:12:27;102560.06;;;25.31;43.46
79589;BME280;69067;51.930;4.492;2023-09-30T07:14:53;102574.66;;;25.38;43.28
79589;BME280;69067;51.930;4.492;2023-09-30T07:17:18;102582.00;;;25.37;43.18
79589;BME280;69067;51.930;4.492;2023-09-30T07:19:44;102578.91;;;25.40;43.05
79589;BME280;69067;51.930;4.492;2023-09-30T07:22:10;102575.50;;;25.38;42.86
79589;BME280;69067;51.930;4.492;2023-09-30T07:24:35;102573.63;;;25.39;43.26
79589;BME280;69067;51.930;4.492;2023-09-30T07:27:02;102578.22;;;25.38;42.91
79589;BME280;69067;51.930;4.492;2023-09-30T07:29:27;102584.72;;;25.37;43.72
79589;BME280;69067;51.930;4.492;2023-09-30T07:31:53;102573.81;;;25.37;43.34
79589;BME280;69067;51.930;4.492;2023-09-30T07:34:19;102585.38;;;25.39;42.69
79589;BME280;69067;51.930;4.492;2023-09-30T07:36:46;102580.47;;;25.35;42.91
79589;BME280;69067;51.930;4.492;2023-09-30T07:39:12;102579.94;;;25.39;43.40
79589;BME280;69067;51.930;4.492;2023-09-30T07:41:38;102584.34;;;25.40;43.22
79589;BME280;69067;51.930;4.492;2023-09-30T07:44:04;102572.97;;;25.37;43.27
79589;BME280;69067;51.930;4.492;2023-09-30T07:46:31;102572.59;;;25.40;42.94
79589;BME280;69067;51.930;4.492;2023-09-30T07:48:56;102572.13;;;25.36;43.18
79589;BME280;69067;51.930;4.492;2023-09-30T07:51:24;102584.34;;;25.40;43.48
79589;BME280;69067;51.930;4.492;2023-09-30T07:53:50;102570.72;;;25.40;43.30
79589;BME280;69067;51.930;4.492;2023-09-30T07:56:16;102577.19;;;25.39;43.11
79589;BME280;69067;51.930;4.492;2023-09-30T07:58:41;102564.59;;;25.38;42.81
79589;BME280;69067;51.930;4.492;2023-09-30T08:01:08;102555.56;;;25.38;42.91
79589;BME280;69067;51.930;4.492;2023-09-30T08:03:34;102561.34;;;25.43;43.55
79589;BME280;69067;51.930;4.492;2023-09-30T08:06:00;102557.75;;;25.42;42.84
79589;BME280;69067;51.930;4.492;2023-09-30T08:08:26;102554.19;;;25.42;42.83
79589;BME280;69067;51.930;4.492;2023-09-30T08:10:53;102556.06;;;25.41;42.85
79589;BME280;69067;51.930;4.492;2023-09-30T08:13:22;102557.59;;;25.44;43.35
79589;BME280;69067;51.930;4.492;2023-09-30T08:15:49;102560.97;;;25.46;42.99
79589;BME280;69067;51.930;4.492;2023-09-30T08:18:16;102556.75;;;25.43;43.26
79589;BME280;69067;51.930;4.492;2023-09-30T08:20:42;102557.59;;;25.44;42.85
79589;BME280;69067;51.930;4.492;2023-09-30T08:23:08;102568.13;;;25.47;43.48
79589;BME280;69067;51.930;4.492;2023-09-30T08:25:34;102565.22;;;25.48;43.33
79589;BME280;69067;51.930;4.492;2023-09-30T08:27:59;102558.91;;;25.48;42.82
79589;BME280;69067;51.930;4.492;2023-09-30T08:30:25;102558.44;;;25.44;43.27
79589;BME280;69067;51.930;4.492;2023-09-30T08:32:51;102555.72;;;25.44;42.56
79589;BME280;69067;51.930;4.492;2023-09-30T08:35:17;102556.75;;;25.43;42.96
79589;BME280;69067;51.930;4.492;2023-09-30T08:37:43;102561.50;;;25.41;43.00
79589;BME280;69067;51.930;4.492;2023-09-30T08:40:09;102569.88;;;25.40;43.31
79589;BME280;69067;51.930;4.492;2023-09-30T08:42:35;102572.47;;;25.33;43.54
79589;BME280;69067;51.930;4.492;2023-09-30T08:45:04;102564.78;;;25.37;43.62
79589;BME280;69067;51.930;4.492;2023-09-30T08:47:33;102579.44;;;25.36;44.08
79589;BME280;69067;51.930;4.492;2023-09-30T08:50:03;102586.78;;;25.35;43.25
79589;BME280;69067;51.930;4.492;2023-09-30T08:52:37;102589.84;;;25.32;43.62
79589;BME280;69067;51.930;4.492;2023-09-30T08:55:04;102597.31;;;25.38;43.23
79589;BME280;69067;51.930;4.492;2023-09-30T08:57:33;102599.41;;;25.36;42.98
79589;BME280;69067;51.930;4.492;2023-09-30T09:00:03;102612.81;;;25.38;43.15
79589;BME280;69067;51.930;4.492;2023-09-30T09:02:29;102610.47;;;25.35;43.59
79589;BME280;69067;51.930;4.492;2023-09-30T09:04:55;102631.09;;;25.37;43.96
79589;BME280;69067;51.930;4.492;2023-09-30T09:07:20;102632.13;;;25.36;43.34
79589;BME280;69067;51.930;4.492;2023-09-30T09:12:38;102636.41;;;25.31;43.38
79589;BME280;69067;51.930;4.492;2023-09-30T09:15:06;102643.38;;;25.33;43.48
79589;BME280;69067;51.930;4.492;2023-09-30T09:17:51;102642.19;;;25.36;42.85
79589;BME280;69067;51.930;4.492;2023-09-30T09:20:22;102649.34;;;25.37;42.64
79589;BME280;69067;51.930;4.492;2023-09-30T09:22:53;102647.25;;;25.39;43.98
79589;BME280;69067;51.930;4.492;2023-09-30T09:25:22;102634.34;;;25.33;43.35
79589;BME280;69067;51.930;4.492;2023-09-30T09:27:49;102643.19;;;25.35;43.35
79589;BME280;69067;51.930;4.492;2023-09-30T09:30:27;102652.22;;;25.35;43.49
79589;BME280;69067;51.930;4.492;2023-09-30T09:33:02;102650.34;;;25.36;43.85
79589;BME280;69067;51.930;4.492;2023-09-30T09:35:33;102641.50;;;25.34;43.39
79589;BME280;69067;51.930;4.492;2023-09-30T09:38:05;102634.00;;;25.36;43.92
79589;BME280;69067;51.930;4.492;2023-09-30T09:40:33;102644.06;;;25.35;43.52
79589;BME280;69067;51.930;4.492;2023-09-30T09:43:02;102647.97;;;25.33;43.91
79589;BME280;69067;51.930;4.492;2023-09-30T09:45:33;102643.88;;;25.37;43.44
79589;BME280;69067;51.930;4.492;2023-09-30T09:48:00;102646.78;;;25.35;44.00
79589;BME280;69067;51.930;4.492;2023-09-30T09:50:30;102654.59;;;25.38;43.70
79589;BME280;69067;51.930;4.492;2023-09-30T09:52:59;102646.41;;;25.38;43.95
79589;BME280;69067;51.930;4.492;2023-09-30T09:55:27;102650.84;;;25.39;44.46
79589;BME280;69067;51.930;4.492;2023-09-30T09:57:53;102633.44;;;25.40;44.44
79589;BME280;69067;51.930;4.492;2023-09-30T10:00:24;102630.91;;;25.39;43.75
79589;BME280;69067;51.930;4.492;2023-09-30T10:02:52;102634.13;;;25.42;43.52
79589;BME280;69067;51.930;4.492;2023-09-30T10:05:19;102630.56;;;25.42;43.85
79589;BME280;69067;51.930;4.492;2023-09-30T10:07:53;102617.94;;;25.41;43.80
79589;BME280;69067;51.930;4.492;2023-09-30T10:10:23;102609.06;;;25.39;43.58
79589;BME280;69067;51.930;4.492;2023-09-30T10:12:50;102602.25;;;25.43;43.74
79589;BME280;69067;51.930;4.492;2023-09-30T10:15:35;102615.38;;;25.39;43.87
79589;BME280;69067;51.930;4.492;2023-09-30T10:18:10;102607.88;;;25.41;44.15
79589;BME280;69067;51.930;4.492;2023-09-30T10:20:38;102608.91;;;25.40;43.39
79589;BME280;69067;51.930;4.492;2023-09-30T10:23:27;102601.56;;;25.41;43.76
79589;BME280;69067;51.930;4.492;2023-09-30T10:28:43;102616.06;;;25.41;43.54
79589;BME280;69067;51.930;4.492;2023-09-30T10:31:17;102611.78;;;25.47;43.53
79589;BME280;69067;51.930;4.492;2023-09-30T10:36:39;102599.72;;;25.33;42.96
79589;BME280;69067;51.930;4.492;2023-09-30T10:39:11;102604.47;;;25.39;42.60
79589;BME280;69067;51.930;4.492;2023-09-30T10:46:57;102612.47;;;25.41;42.60
79589;BME280;69067;51.930;4.492;2023-09-30T10:51:53;102608.72;;;25.42;42.88
79589;BME280;69067;51.930;4.492;2023-09-30T10:54:25;102608.00;;;25.48;42.80
79589;BME280;69067;51.930;4.492;2023-09-30T10:56:53;102609.03;;;25.47;42.55
79589;BME280;69067;51.930;4.492;2023-09-30T10:59:22;102612.63;;;25.47;42.04
79589;BME280;69067;51.930;4.492;2023-09-30T11:01:49;102612.63;;;25.47;42.23
79589;BME280;69067;51.930;4.492;2023-09-30T11:04:16;102597.97;;;25.48;42.07
79589;BME280;69067;51.930;4.492;2023-09-30T11:06:42;102591.81;;;25.46;42.11
79589;BME280;69067;51.930;4.492;2023-09-30T11:09:08;102581.94;;;25.45;41.72
79589;BME280;69067;51.930;4.492;2023-09-30T11:11:39;102596.44;;;25.46;41.68
79589;BME280;69067;51.930;4.492;2023-09-30T11:14:25;102589.94;;;25.47;42.43
79589;BME280;69067;51.930;4.492;2023-09-30T11:16:57;102572.56;;;25.48;41.87
79589;BME280;69067;51.930;4.492;2023-09-30T11:19:25;102574.81;;;25.44;41.96
79589;BME280;69067;51.930;4.492;2023-09-30T11:21:54;102578.88;;;25.48;41.90
79589;BME280;69067;51.930;4.492;2023-09-30T11:24:21;102580.75;;;25.48;41.62
79589;BME280;69067;51.930;4.492;2023-09-30T11:26:47;102581.41;;;25.50;42.01
79589;BME280;69067;51.930;4.492;2023-09-30T11:29:16;102588.59;;;25.51;41.76
79589;BME280;69067;51.930;4.492;2023-09-30T11:31:47;102587.03;;;25.48;41.89
79589;BME280;69067;51.930;4.492;2023-09-30T11:34:15;102592.34;;;25.50;41.38
79589;BME280;69067;51.930;4.492;2023-09-30T11:36:50;102605.28;;;25.48;41.60
79589;BME280;69067;51.930;4.492;2023-09-30T11:39:25;102595.22;;;25.48;41.21
79589;BME280;69067;51.930;4.492;2023-09-30T11:41:54;102593.34;;;25.49;41.27
79589;BME280;69067;51.930;4.492;2023-09-30T11:44:24;102579.59;;;25.42;41.38
79589;BME280;69067;51.930;4.492;2023-09-30T11:46:54;102585.34;;;25.47;41.42
79589;BME280;69067;51.930;4.492;2023-09-30T11:49:33;102592.34;;;25.50;41.14
79589;BME280;69067;51.930;4.492;2023-09-30T11:52:08;102580.91;;;25.46;41.73
79589;BME280;69067;51.930;4.492;2023-09-30T11:54:44;102571.38;;;25.50;41.75
79589;BME280;69067;51.930;4.492;2023-09-30T11:57:13;102567.41;;;25.53;41.19
79589;BME280;69067;51.930;4.492;2023-09-30T11:59:47;102569.28;;;25.52;41.32
79589;BME280;69067;51.930;4.492;2023-09-30T12:02:17;102566.38;;;25.54;41.66
79589;BME280;69067;51.930;4.492;2023-09-30T12:04:44;102571.66;;;25.56;41.47
79589;BME280;69067;51.930;4.492;2023-09-30T12:07:11;102570.34;;;25.52;41.62
79589;BME280;69067;51.930;4.492;2023-09-30T12:09:38;102566.56;;;25.52;41.62
79589;BME280;69067;51.930;4.492;2023-09-30T12:12:06;102566.56;;;25.52;41.09
79589;BME280;69067;51.930;4.492;2023-09-30T12:14:35;102551.41;;;25.50;41.40
79589;BME280;69067;51.930;4.492;2023-09-30T12:17:00;102562.81;;;25.54;40.92
79589;BME280;69067;51.930;4.492;2023-09-30T12:19:26;102574.09;;;25.50;41.26
79589;BME280;69067;51.930;4.492;2023-09-30T12:21:52;102575.78;;;25.52;41.30
79589;BME280;69067;51.930;4.492;2023-09-30T12:24:19;102568.97;;;25.47;41.10
79589;BME280;69067;51.930;4.492;2023-09-30T12:26:48;102573.72;;;25.54;41.08
79589;BME280;69067;51.930;4.492;2023-09-30T12:29:15;102573.72;;;25.54;41.12
79589;BME280;69067;51.930;4.492;2023-09-30T12:31:46;102559.22;;;25.61;41.44
79589;BME280;69067;51.930;4.492;2023-09-30T12:34:13;102558.91;;;25.48;40.69
79589;BME280;69067;51.930;4.492;2023-09-30T12:36:39;102565.69;;;25.52;41.07
79589;BME280;69067;51.930;4.492;2023-09-30T12:39:05;102562.31;;;25.50;40.47
79589;BME280;69067;51.930;4.492;2023-09-30T12:41:40;102557.72;;;25.50;41.08
79589;BME280;69067;51.930;4.492;2023-09-30T12:44:07;102564.69;;;25.53;40.39
79589;BME280;69067;51.930;4.492;2023-09-30T12:46:33;102564.88;;;25.52;41.07
79589;BME280;69067;51.930;4.492;2023-09-30T12:49:03;102558.19;;;25.54;40.83
79589;BME280;69067;51.930;4.492;2023-09-30T12:51:30;102559.44;;;25.52;40.97
79589;BME280;69067;51.930;4.492;2023-09-30T12:53:56;102558.38;;;25.52;40.81
79589;BME280;69067;51.930;4.492;2023-09-30T12:56:23;102562.81;;;25.54;40.52
79589;BME280;69067;51.930;4.492;2023-09-30T12:58:49;102557.16;;;25.55;40.14
79589;BME280;69067;51.930;4.492;2023-09-30T13:01:15;102565.34;;;25.55;39.84
79589;BME280;69067;51.930;4.492;2023-09-30T13:03:44;102550.19;;;25.52;40.22
79589;BME280;69067;51.930;4.492;2023-09-30T13:06:10;102551.88;;;25.54;39.94
79589;BME280;69067;51.930;4.492;2023-09-30T13:08:36;102546.09;;;25.57;40.21